Time;durP1;ratioP1;P1;durP2;ratioP2;P2;SDS_P1;SDS_P2;PMS_P1;PMS_P2;Temp;Humidity;BMP_temperature;BMP_pressure;BME280_temperature;BME280_humidity;BME280_pressure;Samples;Min_cycle;Max_cycle;Signal;HPM_P1;HPM_P2
2024/03/26 00:00:13;;;;;;;2.10;1.80;;;;;;;7.94;100.00;98491.02;104842;1252;60972;-64
2024/03/26 00:02:41;;;;;;;2.40;1.40;;;;;;;7.90;100.00;98491.07;104840;1256;74901;-62
2024/03/26 00:05:08;;;;;;;1.80;1.40;;;;;;;7.92;100.00;98494.77;106244;1251;69081;-62
2024/03/26 00:07:36;;;;;;;1.70;1.60;;;;;;;7.93;100.00;98488.61;104882;1253;73292;-62
2024/03/26 00:10:05;;;;;;;1.40;1.30;;;;;;;7.92;100.00;98488.14;105085;1253;61016;-62
2024/03/26 00:12:32;;;;;;;1.60;1.50;;;;;;;7.89;100.00;98481.30;104636;1253;60437;-62
2024/03/26 00:15:00;;;;;;;1.60;1.50;;;;;;;7.81;100.00;98482.23;104733;1257;74492;-62
2024/03/26 00:17:27;;;;;;;1.50;1.40;;;;;;;7.84;100.00;98483.86;104560;1269;68272;-62
2024/03/26 00:19:55;;;;;;;3.10;2.00;;;;;;;7.90;100.00;98485.63;104789;1253;72466;-62
2024/03/26 00:22:22;;;;;;;1.20;1.10;;;;;;;7.91;100.00;98485.59;105390;1254;61010;-62
2024/03/26 00:24:50;;;;;;;2.00;1.60;;;;;;;8.02;100.00;98486.75;104881;1252;61352;-62
2024/03/26 00:27:17;;;;;;;1.60;1.50;;;;;;;7.86;100.00;98483.92;105049;1252;76289;-61
2024/03/26 00:29:45;;;;;;;3.20;1.90;;;;;;;7.85;100.00;98490.27;104817;1257;69585;-62
2024/03/26 00:32:12;;;;;;;;;;;;;;;7.81;100.00;98496.19;104723;1257;73806;-62
2024/03/26 00:34:40;;;;;;;2.10;1.60;;;;;;;7.83;100.00;98494.04;104567;1263;61313;-63
2024/03/26 00:37:08;;;;;;;2.00;1.70;;;;;;;7.89;100.00;98492.63;104405;1253;61280;-62
2024/03/26 00:39:35;;;;;;;3.40;2.00;;;;;;;7.99;100.00;98490.05;104544;1258;74910;-62
2024/03/26 00:42:03;;;;;;;1.70;1.60;;;;;;;8.03;100.00;98493.17;104743;1253;69124;-61
2024/03/26 00:44:30;;;;;;;3.40;2.40;;;;;;;8.14;100.00;98487.00;104433;1254;74230;-61
2024/03/26 00:46:58;;;;;;;2.30;1.70;;;;;;;8.12;100.00;98490.58;105285;1252;61309;-64
2024/03/26 00:49:26;;;;;;;1.50;1.40;;;;;;;8.10;100.00;98490.00;104549;1258;61308;-62
2024/03/26 00:51:53;;;;;;;1.60;1.40;;;;;;;8.14;100.00;98492.78;104762;1253;73556;-62
2024/03/26 00:54:21;;;;;;;1.70;1.50;;;;;;;8.09;100.00;98492.52;104554;1253;70352;-61
2024/03/26 00:56:51;;;;;;;1.80;1.60;;;;;;;8.07;100.00;98488.63;104405;1256;72480;-62
2024/03/26 00:59:19;;;;;;;4.00;1.60;;;;;;;8.06;100.00;98487.79;104801;1253;61347;-61
2024/03/26 01:01:47;;;;;;;1.90;1.70;;;;;;;8.09;100.00;98486.75;104581;1253;61327;-61
2024/03/26 01:04:14;;;;;;;1.90;1.60;;;;;;;8.17;100.00;98489.48;104605;1257;74934;-61
2024/03/26 01:06:42;;;;;;;1.20;1.10;;;;;;;8.15;100.00;98488.75;104510;1258;68320;-61
2024/03/26 01:09:09;;;;;;;1.70;1.60;;;;;;;8.10;100.00;98486.18;105130;1256;72901;-62
2024/03/26 01:11:37;;;;;;;1.20;1.10;;;;;;;8.11;100.00;98484.58;104890;1257;61229;-62
2024/03/26 01:14:04;;;;;;;1.50;1.40;;;;;;;8.07;100.00;98485.28;104514;1253;60844;-62
2024/03/26 01:16:32;;;;;;;1.10;1.00;;;;;;;8.11;100.00;98487.69;104523;1254;75662;-61
2024/03/26 01:18:59;;;;;;;1.70;1.30;;;;;;;8.12;100.00;98489.36;104872;1251;69144;-65
2024/03/26 01:21:28;;;;;;;2.00;1.40;;;;;;;8.09;100.00;98489.89;105107;1253;73319;-61
2024/03/26 01:23:56;;;;;;;1.40;1.30;;;;;;;8.18;100.00;98483.00;104441;1254;61306;-61
2024/03/26 01:26:23;;;;;;;1.20;1.10;;;;;;;8.25;100.00;98484.90;104988;1254;61162;-61
2024/03/26 01:28:51;;;;;;;;;;;;;;;8.28;100.00;98491.23;105095;1257;74435;-62
2024/03/26 01:31:18;;;;;;;4.50;1.50;;;;;;;8.25;100.00;98494.34;104561;1256;69428;-61
2024/03/26 01:33:46;;;;;;;1.00;1.00;;;;;;;8.24;100.00;98493.52;104440;1253;73028;-61
2024/03/26 01:36:13;;;;;;;1.50;1.40;;;;;;;8.11;100.00;98490.13;104687;1253;61568;-62
2024/03/26 01:38:41;;;;;;;1.50;1.20;;;;;;;8.06;100.00;98492.69;104453;1254;61943;-62
2024/03/26 01:41:09;;;;;;;1.40;1.30;;;;;;;7.98;100.00;98498.11;104874;1251;74445;-62
2024/03/26 01:43:36;;;;;;;2.10;1.30;;;;;;;7.99;100.00;98502.08;104881;1256;69536;-63
2024/03/26 01:46:04;;;;;;;1.70;1.60;;;;;;;7.97;100.00;98507.60;104322;1253;71172;-61
2024/03/26 01:48:32;;;;;;;1.60;1.10;;;;;;;7.95;100.00;98511.58;104441;1269;61877;-62
2024/03/26 01:50:59;;;;;;;2.30;1.10;;;;;;;7.91;100.00;98512.83;104831;1252;61426;-63
2024/03/26 01:53:27;;;;;;;1.60;1.20;;;;;;;7.92;100.00;98517.98;104787;1254;74472;-62
2024/03/26 01:55:54;;;;;;;1.30;1.00;;;;;;;7.96;100.00;98516.00;104614;1252;69203;-63
2024/03/26 01:58:26;;;;;;;2.10;1.50;;;;;;;7.95;100.00;98517.45;104436;1254;71774;-61
2024/03/26 02:00:54;;;;;;;1.50;1.20;;;;;;;8.02;100.00;98523.27;104407;1259;61382;-62
2024/03/26 02:03:22;;;;;;;1.00;0.90;;;;;;;8.01;100.00;98525.74;104896;1263;61256;-61
2024/03/26 02:05:49;;;;;;;2.30;1.30;;;;;;;8.01;100.00;98524.00;104431;1270;74443;-61
2024/03/26 02:08:17;;;;;;;1.30;1.20;;;;;;;7.96;100.00;98522.67;104415;1261;69138;-61
2024/03/26 02:10:44;;;;;;;1.30;1.20;;;;;;;8.06;100.00;98520.23;108435;1251;72928;-62
2024/03/26 02:13:12;;;;;;;1.30;1.20;;;;;;;8.06;100.00;98517.81;108512;1251;60715;-62
2024/03/26 02:15:39;;;;;;;1.60;1.20;;;;;;;7.97;100.00;98515.14;108432;1251;60150;-62
2024/03/26 02:18:07;;;;;;;2.50;1.40;;;;;;;8.03;100.00;98513.08;108390;1251;74447;-62
2024/03/26 02:20:34;;;;;;;1.20;1.10;;;;;;;8.20;100.00;98515.70;108481;1252;69181;-62
2024/03/26 02:23:02;;;;;;;1.00;0.90;;;;;;;8.21;100.00;98521.07;108442;1251;72336;-62
2024/03/26 02:25:29;;;;;;;0.90;0.90;;;;;;;8.27;100.00;98524.45;108394;1251;59665;-62
2024/03/26 02:27:57;;;;;;;0.90;0.80;;;;;;;8.24;100.00;98528.09;108543;1251;60145;-63
2024/03/26 02:30:25;;;;;;;2.60;0.80;;;;;;;8.29;100.00;98534.81;108478;1253;75040;-62
2024/03/26 02:32:52;;;;;;;;;;;;;;;8.23;100.00;98535.43;108472;1253;69115;-62
2024/03/26 02:35:20;;;;;;;1.00;0.90;;;;;;;8.17;100.00;98531.73;108444;1251;72793;-62
2024/03/26 02:37:48;;;;;;;0.90;0.90;;;;;;;8.26;100.00;98540.20;108489;1251;60866;-64
2024/03/26 02:40:16;;;;;;;0.70;0.70;;;;;;;8.28;100.00;98543.20;108421;1251;59785;-64
2024/03/26 02:42:43;;;;;;;1.30;0.80;;;;;;;8.26;100.00;98543.90;108474;1251;73670;-64
2024/03/26 02:45:11;;;;;;;0.70;0.70;;;;;;;8.25;100.00;98541.15;108308;1251;68167;-63
2024/03/26 02:47:38;;;;;;;;;;;;;;;8.25;100.00;98546.34;108417;1251;72647;-64
2024/03/26 02:50:06;;;;;;;1.40;0.60;;;;;;;8.28;100.00;98552.48;108414;1251;60746;-62
2024/03/26 02:52:35;;;;;;;0.60;0.60;;;;;;;8.32;100.00;98552.28;108364;1251;60714;-62
2024/03/26 02:55:02;;;;;;;0.60;0.60;;;;;;;8.33;100.00;98553.60;108350;1252;73894;-62
2024/03/26 02:57:30;;;;;;;0.90;0.90;;;;;;;8.34;100.00;98558.64;108380;1253;70322;-62
2024/03/26 02:59:57;;;;;;;0.70;0.70;;;;;;;8.37;100.00;98561.98;108435;1253;72331;-63
2024/03/26 03:02:25;;;;;;;0.80;0.70;;;;;;;8.37;100.00;98564.73;108370;1251;60665;-62
2024/03/26 03:04:52;;;;;;;0.80;0.80;;;;;;;8.39;100.00;98565.89;108440;1252;60695;-62
2024/03/26 03:07:20;;;;;;;0.70;0.50;;;;;;;8.36;100.00;98570.06;108375;1251;74502;-63
2024/03/26 03:09:47;;;;;;;0.50;0.50;;;;;;;8.20;100.00;98577.85;108460;1252;70026;-62
2024/03/26 03:12:15;;;;;;;1.00;0.70;;;;;;;8.12;100.00;98582.58;108417;1253;72413;-62
2024/03/26 03:14:43;;;;;;;0.60;0.60;;;;;;;8.11;100.00;98589.98;108295;1252;61073;-62
2024/03/26 03:17:10;;;;;;;1.00;0.80;;;;;;;8.09;100.00;98595.88;108334;1251;60106;-62
2024/03/26 03:19:38;;;;;;;1.10;0.60;;;;;;;8.13;100.00;98595.14;108412;1251;74464;-62
2024/03/26 03:22:05;;;;;;;1.20;0.80;;;;;;;8.26;100.00;98605.46;108203;1253;69101;-62
2024/03/26 03:24:33;;;;;;;1.10;0.50;;;;;;;8.13;100.00;98608.02;108351;1252;72385;-63
2024/03/26 03:27:00;;;;;;;0.80;0.60;;;;;;;8.16;100.00;98610.88;108271;1251;60604;-62
2024/03/26 03:29:28;;;;;;;0.40;0.40;;;;;;;8.24;100.00;98608.58;108412;1252;59373;-61
2024/03/26 03:31:55;;;;;;;0.90;0.60;;;;;;;8.32;100.00;98617.20;107809;1253;75237;-61
2024/03/26 03:34:23;;;;;;;0.90;0.90;;;;;;;8.33;100.00;98615.09;108366;1252;69621;-62
2024/03/26 03:36:50;;;;;;;0.90;0.70;;;;;;;8.30;100.00;98617.34;108262;1253;73384;-62
2024/03/26 03:39:18;;;;;;;1.30;0.70;;;;;;;8.31;100.00;98618.34;108427;1251;60572;-61
2024/03/26 03:41:46;;;;;;;0.80;0.60;;;;;;;8.35;100.00;98623.20;108376;1255;60477;-61
2024/03/26 03:44:13;;;;;;;0.70;0.60;;;;;;;8.34;100.00;98624.98;108348;1251;74468;-61
2024/03/26 03:46:41;;;;;;;1.40;1.20;;;;;;;8.21;100.00;98625.95;108311;1251;69601;-62
2024/03/26 03:49:08;;;;;;;0.80;0.70;;;;;;;8.17;100.00;98629.15;108367;1253;72597;-61
2024/03/26 03:51:36;;;;;;;0.70;0.70;;;;;;;8.17;100.00;98631.91;108367;1251;60500;-61
2024/03/26 03:54:03;;;;;;;1.10;0.90;;;;;;;8.16;100.00;98635.45;108363;1251;60535;-61
2024/03/26 03:56:31;;;;;;;1.10;0.70;;;;;;;8.15;100.00;98629.25;108206;1251;73557;-61
2024/03/26 03:58:58;;;;;;;0.70;0.70;;;;;;;8.20;100.00;98639.48;108391;1253;69174;-61
2024/03/26 04:01:26;;;;;;;1.40;0.80;;;;;;;8.28;100.00;98644.67;108331;1251;73413;-62
2024/03/26 04:03:53;;;;;;;0.70;0.70;;;;;;;8.32;100.00;98649.54;108315;1251;60663;-61
2024/03/26 04:06:21;;;;;;;1.10;0.80;;;;;;;8.29;100.00;98656.30;108407;1252;59759;-61
2024/03/26 04:08:51;;;;;;;1.70;0.80;;;;;;;8.24;100.00;98661.97;108397;1251;74261;-62
2024/03/26 04:11:19;;;;;;;1.30;0.80;;;;;;;8.24;100.00;98664.77;108300;1253;70220;-61
2024/03/26 04:13:46;;;;;;;3.30;1.00;;;;;;;8.18;100.00;98667.34;108381;1252;72293;-61
2024/03/26 04:16:14;;;;;;;1.50;0.90;;;;;;;8.20;100.00;98676.85;108064;1253;61137;-61
2024/03/26 04:18:41;;;;;;;1.30;0.90;;;;;;;8.24;100.00;98685.04;108502;1251;59768;-61
2024/03/26 04:21:09;;;;;;;1.00;0.90;;;;;;;8.12;100.00;98692.74;108393;1251;74889;-61
2024/03/26 04:23:36;;;;;;;0.90;0.80;;;;;;;8.11;100.00;98692.25;108386;1252;68089;-63
2024/03/26 04:26:04;;;;;;;1.60;0.80;;;;;;;8.41;100.00;98693.11;108151;1253;74233;-64
2024/03/26 04:28:31;;;;;;;1.00;0.80;;;;;;;8.38;100.00;98688.33;108430;1251;60602;-64
2024/03/26 04:30:59;;;;;;;;;;;;;;;8.45;100.00;98696.27;108359;1253;59799;-61
2024/03/26 04:33:26;;;;;;;;;;;;;;;8.44;100.00;98702.37;108413;1253;75327;-60
2024/03/26 04:36:00;;;;;;;1.90;0.90;;;;;;;8.55;100.00;98710.23;108361;1253;69096;-62
2024/03/26 04:38:31;;;;;;;3.00;1.00;;;;;;;8.44;100.00;98713.41;108319;1253;73065;-62
2024/03/26 04:40:58;;;;;;;2.00;1.20;;;;;;;8.39;100.00;98723.06;108365;1251;61272;-61
2024/03/26 04:43:26;;;;;;;2.70;1.60;;;;;;;8.39;100.00;98725.88;108369;1251;60745;-59
2024/03/26 04:45:53;;;;;;;;;;;;;;;8.50;100.00;98726.38;108327;1253;74368;-59
2024/03/26 04:48:21;;;;;;;;;;;;;;;8.52;100.00;98731.86;108425;1251;68443;-60
2024/03/26 04:50:49;;;;;;;1.20;1.00;;;;;;;8.49;100.00;98737.61;108333;1253;73513;-60
2024/03/26 04:53:16;;;;;;;1.50;1.00;;;;;;;8.50;100.00;98739.66;108383;1251;60856;-63
2024/03/26 04:55:45;;;;;;;;;;;;;;;8.60;100.00;98741.48;108413;1251;59146;-59
2024/03/26 04:58:13;;;;;;;1.90;1.00;;;;;;;8.58;100.00;98743.66;108120;1253;74500;-60
2024/03/26 05:00:40;;;;;;;2.20;0.80;;;;;;;8.53;100.00;98742.48;108331;1251;69313;-60
2024/03/26 05:03:08;;;;;;;1.60;1.00;;;;;;;8.55;100.00;98751.29;108400;1253;72276;-58
2024/03/26 05:05:36;;;;;;;2.40;1.20;;;;;;;8.61;100.00;98746.63;107942;1253;61653;-57
2024/03/26 05:08:04;;;;;;;1.90;1.00;;;;;;;8.66;100.00;98753.41;108369;1251;59921;-57
2024/03/26 05:10:31;;;;;;;;;;;;;;;8.68;100.00;98756.95;108384;1251;73876;-59
2024/03/26 05:12:59;;;;;;;2.10;1.00;;;;;;;8.68;100.00;98752.77;107984;1253;70688;-60
2024/03/26 05:15:26;;;;;;;2.20;1.00;;;;;;;8.72;100.00;98754.84;108322;1253;72421;-58
2024/03/26 05:17:54;;;;;;;1.30;0.90;;;;;;;8.76;100.00;98760.39;108376;1253;60761;-58
2024/03/26 05:20:23;;;;;;;1.00;0.80;;;;;;;8.83;100.00;98767.21;108350;1254;59688;-59
2024/03/26 05:22:51;;;;;;;2.60;1.30;;;;;;;8.84;100.00;98766.34;108398;1251;74507;-59
2024/03/26 05:25:18;;;;;;;1.60;1.00;;;;;;;8.89;100.00;98771.48;108381;1253;69080;-59
2024/03/26 05:27:46;;;;;;;1.50;0.90;;;;;;;8.90;100.00;98770.56;108318;1252;73178;-59
2024/03/26 05:30:13;;;;;;;2.80;1.10;;;;;;;8.89;100.00;98772.89;108355;1251;60066;-59
2024/03/26 05:32:41;;;;;;;;;;;;;;;8.76;100.00;98775.61;108395;1252;60129;-60
2024/03/26 05:35:12;;;;;;;0.90;0.80;;;;;;;8.76;100.00;98780.33;107953;1252;75011;-58
2024/03/26 05:37:46;;;;;;;1.20;1.10;;;;;;;8.72;100.00;98779.80;108436;1252;69219;-59
2024/03/26 05:40:14;;;;;;;1.50;1.00;;;;;;;8.78;100.00;98779.55;108337;1253;73398;-59
2024/03/26 05:42:42;;;;;;;1.30;0.90;;;;;;;8.81;100.00;98785.48;108364;1253;60724;-58
2024/03/26 05:45:10;;;;;;;1.20;0.90;;;;;;;8.86;100.00;98782.27;108365;1252;60695;-60
2024/03/26 05:47:38;;;;;;;1.80;0.90;;;;;;;8.90;100.00;98779.84;107784;1260;76918;-60
2024/03/26 05:50:06;;;;;;;1.10;1.00;;;;;;;8.86;100.00;98786.27;108351;1253;69111;-60
2024/03/26 05:52:34;;;;;;;1.50;1.10;;;;;;;8.96;100.00;98792.08;108342;1251;72335;-59
2024/03/26 05:55:02;;;;;;;1.60;0.90;;;;;;;9.07;100.00;98792.97;108386;1253;60598;-59
2024/03/26 06:00:43;;;;;;;3.30;1.00;;;;;;;9.29;100.00;98802.33;102253;1292;601102;-59
2024/03/26 06:03:11;;;;;;;2.20;1.30;;;;;;;9.29;100.00;98808.13;104154;1272;62609;-59
2024/03/26 06:05:40;;;;;;;1.20;1.10;;;;;;;9.16;100.00;98805.45;104020;1269;59679;-59
2024/03/26 06:08:08;;;;;;;3.40;0.90;;;;;;;9.20;100.00;98808.04;104099;1267;71694;-60
2024/03/26 06:10:36;;;;;;;1.80;0.90;;;;;;;9.28;100.00;98811.34;103843;1272;71424;-60
2024/03/26 06:13:04;;;;;;;2.60;1.10;;;;;;;9.31;100.00;98812.21;103908;1273;72439;-58
2024/03/26 06:15:34;;;;;;;1.40;1.00;;;;;;;9.35;100.00;98817.45;103636;1276;61615;-57
2024/03/26 06:18:01;;;;;;;1.40;0.90;;;;;;;9.29;100.00;98820.89;104312;1264;60703;-57
2024/03/26 06:20:29;;;;;;;3.20;1.40;;;;;;;9.30;100.00;98822.92;104117;1263;73188;-59
2024/03/26 06:22:57;;;;;;;2.00;1.20;;;;;;;9.30;100.00;98824.46;103828;1273;69415;-58
2024/03/26 06:25:25;;;;;;;;;;;;;;;9.30;100.00;98828.49;104226;1276;73376;-57
2024/03/26 06:27:53;;;;;;;1.20;1.10;;;;;;;9.38;100.00;98829.36;103846;1267;60747;-58
2024/03/26 06:30:21;;;;;;;2.10;1.00;;;;;;;9.42;99.88;98831.42;103997;1267;60641;-58
2024/03/26 06:32:49;;;;;;;1.80;1.00;;;;;;;9.39;99.60;98829.66;103888;1267;73584;-59
2024/03/26 06:35:17;;;;;;;2.80;1.00;;;;;;;9.36;99.89;98831.36;103935;1279;70065;-60
2024/03/26 06:37:45;;;;;;;;;;;;;;;9.43;100.00;98832.39;104257;1264;73774;-59
2024/03/26 06:40:12;;;;;;;;;;;;;;;9.53;100.00;98833.64;104264;1266;60640;-59
2024/03/26 06:42:40;;;;;;;2.90;2.00;;;;;;;9.49;99.72;98837.56;103928;1269;60732;-59
2024/03/26 06:45:08;;;;;;;;;;;;;;;9.55;98.30;98837.19;103958;1279;72657;-60
2024/03/26 06:47:35;;;;;;;2.70;1.20;;;;;;;9.64;99.43;98837.79;104180;1285;68367;-58
2024/03/26 06:50:03;;;;;;;1.90;1.20;;;;;;;9.62;96.66;98835.98;104487;1269;72446;-58
2024/03/26 06:52:31;;;;;;;;;;;;;;;9.62;96.37;98844.25;103924;1269;61522;-61
2024/03/26 06:55:00;;;;;;;1.40;0.90;;;;;;;9.66;95.05;98847.83;104002;1272;61005;-60
2024/03/26 06:57:27;;;;;;;;;;;;;;;9.72;95.03;98850.33;106208;1262;74794;-59
2024/03/26 06:59:58;;;;;;;1.30;1.00;;;;;;;9.77;95.70;98855.48;105980;1263;70119;-60
2024/03/26 07:02:28;;;;;;;1.50;0.90;;;;;;;9.82;95.86;98858.56;105431;1264;72774;-60
2024/03/26 07:04:55;;;;;;;2.00;1.10;;;;;;;9.85;94.62;98858.08;104347;1269;60555;-59
2024/03/26 07:07:23;;;;;;;2.20;1.10;;;;;;;9.88;94.41;98862.48;104517;1266;59990;-59
2024/03/26 07:09:51;;;;;;;1.60;1.00;;;;;;;9.99;95.47;98864.70;104841;1264;73064;-61
2024/03/26 07:12:18;;;;;;;1.70;1.20;;;;;;;10.06;93.73;98870.98;104506;1263;69208;-58
2024/03/26 07:14:46;;;;;;;4.20;1.40;;;;;;;10.17;94.39;98871.46;104653;1263;72459;-59
2024/03/26 07:17:14;;;;;;;1.80;1.10;;;;;;;10.27;93.03;98876.36;104573;1270;59769;-61
2024/03/26 07:19:43;;;;;;;1.70;1.00;;;;;;;10.28;92.77;98878.23;105416;1263;61134;-61
2024/03/26 07:22:11;;;;;;;2.40;1.90;;;;;;;10.35;95.05;98880.84;105849;1254;74595;-60
2024/03/26 07:24:42;;;;;;;3.00;1.50;;;;;;;10.46;94.30;98874.30;105662;1261;68134;-59
2024/03/26 07:27:13;;;;;;;2.90;1.60;;;;;;;10.55;92.27;98874.87;105955;1254;73579;-59
2024/03/26 07:29:44;;;;;;;1.90;1.40;;;;;;;10.70;92.35;98879.82;106078;1259;62524;-58
2024/03/26 07:32:12;;;;;;;2.10;1.30;;;;;;;10.73;89.75;98885.42;106157;1254;63152;-58
2024/03/26 07:34:40;;;;;;;;;;;;;;;10.75;88.09;98885.16;106170;1260;73920;-60
2024/03/26 07:37:07;;;;;;;2.20;1.30;;;;;;;10.81;88.09;98899.74;104487;1260;69327;-62
2024/03/26 07:39:35;;;;;;;1.70;1.10;;;;;;;10.84;86.56;98899.20;105215;1257;74782;-59
2024/03/26 07:42:03;;;;;;;;;;;;;;;10.89;85.05;98898.40;104982;1256;60827;-57
2024/03/26 07:44:31;;;;;;;3.30;1.20;;;;;;;10.99;85.49;98896.61;105088;1260;60555;-58
2024/03/26 07:46:59;;;;;;;3.40;1.40;;;;;;;10.94;85.58;98899.19;105175;1257;74383;-59
2024/03/26 07:49:27;;;;;;;2.30;1.50;;;;;;;10.92;85.90;98901.73;104584;1273;69552;-59
2024/03/26 07:51:54;;;;;;;3.60;1.40;;;;;;;11.03;83.35;98899.56;105040;1257;72226;-59
2024/03/26 07:54:23;;;;;;;2.00;1.60;;;;;;;11.15;81.55;98902.20;104624;1269;61260;-59
2024/03/26 07:56:51;;;;;;;1.20;1.10;;;;;;;11.19;79.75;98908.29;105323;1254;61722;-59
2024/03/26 07:59:19;;;;;;;4.20;1.40;;;;;;;11.18;78.04;98908.89;105173;1254;74272;-60
2024/03/26 08:01:47;;;;;;;1.40;1.10;;;;;;;11.19;78.06;98907.97;104796;1259;70264;-58
2024/03/26 08:04:57;;;;;;;2.30;1.30;;;;;;;10.59;87.74;98917.30;101823;1289;600980;-59
2024/03/26 08:07:25;;;;;;;2.40;1.60;;;;;;;11.10;79.55;98907.92;104496;1265;61701;-59
2024/03/26 08:09:53;;;;;;;1.20;1.00;;;;;;;11.14;77.57;98911.55;104731;1265;59969;-59
2024/03/26 08:12:20;;;;;;;1.90;1.50;;;;;;;11.22;79.90;98914.08;104267;1281;75671;-61
2024/03/26 08:14:48;;;;;;;2.00;1.50;;;;;;;11.36;79.06;98919.43;104207;1265;69510;-60
2024/03/26 16:41:34;;;;;;;4.10;2.40;;;;;;;8.74;54.12;99199.41;102167;1292;601898;-59
2024/03/26 16:44:02;;;;;;;3.00;2.10;;;;;;;9.52;51.76;99194.79;103706;1269;62688;-62
2024/03/26 16:46:30;;;;;;;3.80;2.80;;;;;;;9.61;51.08;99197.20;103946;1266;60711;-61
2024/03/26 16:48:57;;;;;;;3.70;2.60;;;;;;;9.66;51.12;99199.74;103890;1267;73071;-58
2024/03/26 16:51:25;;;;;;;4.00;2.70;;;;;;;9.65;51.95;99205.23;103867;1266;70005;-58
2024/03/26 16:53:53;;;;;;;5.70;3.30;;;;;;;9.61;52.48;99205.25;102959;1270;1087717;-58
2024/03/26 16:56:20;;;;;;;6.80;3.20;;;;;;;9.57;52.18;99207.17;104113;1267;61964;-58
2024/03/26 16:58:48;;;;;;;8.70;5.60;;;;;;;9.51;52.50;99210.95;104016;1263;60113;-58
2024/03/26 17:01:15;;;;;;;11.20;7.90;;;;;;;9.46;52.79;99212.55;103991;1269;73279;-58
2024/03/26 17:03:45;;;;;;;16.50;7.30;;;;;;;9.39;53.04;99217.80;104020;1269;70972;-58
2024/03/26 17:06:13;;;;;;;8.60;6.80;;;;;;;9.27;53.43;99216.21;104015;1269;73362;-59
2024/03/26 17:08:41;;;;;;;9.90;6.40;;;;;;;9.21;53.92;99217.52;104151;1260;60437;-58
2024/03/26 17:11:08;;;;;;;12.20;6.60;;;;;;;9.15;54.29;99214.80;104265;1271;60610;-58
2024/03/26 17:13:36;;;;;;;10.10;6.80;;;;;;;9.10;54.97;99225.67;104110;1256;73896;-58
2024/03/26 17:16:04;;;;;;;12.50;8.20;;;;;;;9.06;55.53;99221.15;104069;1257;69636;-59
2024/03/26 17:18:32;;;;;;;9.90;6.90;;;;;;;9.12;55.63;99219.48;104325;1257;72596;-57
2024/03/26 17:21:00;;;;;;;12.70;7.30;;;;;;;9.10;55.72;99221.34;104232;1263;60564;-59
2024/03/26 17:23:27;;;;;;;13.70;8.50;;;;;;;9.04;56.35;99220.04;104801;1256;60456;-58
2024/03/26 17:25:54;;;;;;;13.10;8.40;;;;;;;9.01;56.78;99221.17;104236;1260;74089;-58
2024/03/26 17:28:23;;;;;;;16.90;10.20;;;;;;;8.97;57.06;99221.20;104347;1261;69500;-58
2024/03/26 17:30:51;;;;;;;19.80;11.50;;;;;;;8.98;56.65;99226.91;104249;1260;72707;-58
2024/03/26 17:33:18;;;;;;;22.80;13.20;;;;;;;9.01;56.54;99227.48;104135;1258;61052;-57
2024/03/26 17:35:47;;;;;;;33.80;15.90;;;;;;;8.98;56.77;99229.88;104152;1264;60489;-59
2024/03/26 17:38:15;;;;;;;32.90;18.00;;;;;;;8.91;56.11;99230.49;104242;1273;73957;-58
2024/03/26 17:40:42;;;;;;;40.00;19.20;;;;;;;8.92;56.32;99233.82;104484;1260;70236;-58
2024/03/26 17:43:10;;;;;;;39.70;18.40;;;;;;;8.90;56.31;99236.36;104324;1260;72120;-58
2024/03/26 17:45:38;;;;;;;34.10;16.10;;;;;;;8.85;56.55;99236.57;104405;1260;60501;-59
2024/03/26 17:48:06;;;;;;;24.90;13.90;;;;;;;8.75;57.06;99238.00;104306;1260;60494;-58
2024/03/26 17:50:37;;;;;;;23.10;12.30;;;;;;;8.50;57.58;99239.41;104747;1257;73638;-59
2024/03/26 17:53:05;;;;;;;26.10;12.80;;;;;;;8.43;57.73;99241.96;104405;1257;68569;-58
2024/03/26 17:55:34;;;;;;;20.10;10.90;;;;;;;8.36;57.90;99244.64;104184;1260;72864;-57
2024/03/26 17:58:02;;;;;;;18.00;10.80;;;;;;;8.42;57.32;99250.52;104089;1262;61117;-58
2024/03/26 18:00:29;;;;;;;20.00;10.10;;;;;;;8.27;57.58;99249.17;104246;1274;60442;-57
2024/03/26 18:02:57;;;;;;;19.50;11.50;;;;;;;8.25;57.46;99249.77;104616;1260;73326;-58
2024/03/26 18:05:25;;;;;;;;;;;;;;;8.32;57.27;99251.94;104276;1260;68267;-58
2024/03/26 18:07:52;;;;;;;;;;;;;;;8.43;56.97;99255.06;104397;1263;72566;-58
2024/03/26 18:10:20;;;;;;;26.10;13.50;;;;;;;8.47;56.78;99258.92;104490;1264;60558;-59
2024/03/26 18:12:48;;;;;;;25.90;12.60;;;;;;;8.47;56.95;99258.05;104407;1256;60648;-58
2024/03/26 18:15:16;;;;;;;;;;;;;;;8.46;57.10;99256.33;104413;1264;73668;-58
2024/03/26 18:17:45;;;;;;;18.00;10.10;;;;;;;8.44;57.85;99255.89;104208;1257;69293;-57
2024/03/26 18:20:14;;;;;;;18.80;10.00;;;;;;;8.37;57.70;99258.56;104093;1258;72647;-57
2024/03/26 18:22:41;;;;;;;14.40;7.80;;;;;;;8.30;57.71;99264.42;104279;1260;60437;-57
2024/03/26 18:25:09;;;;;;;10.50;6.70;;;;;;;8.22;57.60;99266.48;105126;1255;60521;-59
2024/03/26 18:27:37;;;;;;;10.20;6.20;;;;;;;8.14;57.83;99262.25;105158;1255;74708;-60
2024/03/26 18:30:06;;;;;;;9.80;6.40;;;;;;;8.04;58.05;99260.40;105200;1257;71610;-62
2024/03/26 18:32:34;;;;;;;11.70;5.30;;;;;;;7.54;59.30;99268.36;104977;1257;72514;-63
2024/03/26 18:35:02;;;;;;;10.20;5.60;;;;;;;7.35;61.73;99280.36;104650;1253;60488;-62
2024/03/26 18:37:29;;;;;;;11.70;5.90;;;;;;;7.22;62.23;99285.00;105010;1251;60734;-61
2024/03/26 18:39:57;;;;;;;8.00;5.50;;;;;;;6.72;65.21;99286.85;104671;1254;74793;-60
2024/03/26 18:42:25;;;;;;;7.60;5.40;;;;;;;6.65;67.33;99291.44;104575;1259;70131;-62
2024/03/26 18:44:53;;;;;;;9.20;5.10;;;;;;;6.59;69.45;99293.71;104804;1257;72729;-60
2024/03/26 18:47:21;;;;;;;9.20;5.90;;;;;;;6.61;69.51;99298.36;105096;1253;60546;-60
2024/03/26 18:49:50;;;;;;;;;;;;;;;6.57;70.81;99297.10;104641;1253;60453;-60
2024/03/26 18:52:19;;;;;;;9.20;5.50;;;;;;;6.54;71.34;99296.15;104572;1257;73971;-59
2024/03/26 18:54:50;;;;;;;8.50;5.30;;;;;;;6.85;70.69;99299.50;105075;1251;69971;-59
2024/03/26 18:57:19;;;;;;;6.90;6.00;;;;;;;7.45;65.29;99296.74;105229;1261;74884;-60
2024/03/26 18:59:47;;;;;;;7.70;5.00;;;;;;;7.44;65.00;99292.79;104834;1266;60533;-59
2024/03/26 19:02:14;;;;;;;9.30;5.80;;;;;;;7.51;64.25;99292.20;105467;1251;60994;-59
2024/03/26 19:04:42;;;;;;;11.30;5.70;;;;;;;7.55;63.25;99299.91;104833;1254;74032;-59
2024/03/26 19:07:11;;;;;;;;;;;;;;;7.50;62.51;99286.27;104927;1261;70462;-60
2024/03/26 19:09:39;;;;;;;8.90;5.20;;;;;;;6.69;64.33;99292.69;104310;1269;72812;-60
2024/03/26 19:12:07;;;;;;;9.50;6.20;;;;;;;6.80;66.18;99289.02;105253;1265;60447;-60
2024/03/26 19:14:35;;;;;;;10.80;5.90;;;;;;;6.53;67.56;99290.26;104747;1257;60549;-59
2024/03/26 19:17:04;;;;;;;8.90;6.00;;;;;;;6.47;70.24;99295.84;104615;1256;72998;-60
2024/03/26 19:19:32;;;;;;;7.80;5.50;;;;;;;6.36;71.05;99291.67;104745;1251;68226;-59
2024/03/26 19:22:00;;;;;;;7.40;5.30;;;;;;;6.46;71.24;99293.25;104530;1257;73326;-60
2024/03/26 19:24:30;;;;;;;8.30;5.70;;;;;;;6.20;73.55;99281.02;105176;1251;60481;-59
2024/03/26 19:26:58;;;;;;;6.70;5.60;;;;;;;6.17;73.70;99289.46;105553;1257;60639;-60
2024/03/26 19:29:26;;;;;;;7.50;6.10;;;;;;;6.13;72.93;99290.29;104895;1258;77124;-58
2024/03/26 19:31:54;;;;;;;10.10;5.70;;;;;;;6.09;73.97;99298.04;104959;1251;69634;-60
2024/03/26 19:34:21;;;;;;;;;;;;;;;6.05;74.62;99299.89;104653;1259;71699;-58
2024/03/26 19:36:50;;;;;;;8.00;5.40;;;;;;;6.04;76.63;99301.14;104740;1267;60603;-59
2024/03/26 19:39:17;;;;;;;7.80;6.40;;;;;;;6.20;75.25;99306.77;104703;1258;62953;-59
2024/03/26 19:41:45;;;;;;;10.10;6.60;;;;;;;6.26;75.08;99305.38;104862;1256;73843;-60
2024/03/26 19:44:15;;;;;;;11.00;6.60;;;;;;;6.12;77.17;99305.29;104784;1270;69518;-60
2024/03/26 19:46:42;;;;;;;8.00;6.10;;;;;;;6.10;81.12;99306.39;104799;1256;75377;-60
2024/03/26 19:49:10;;;;;;;8.80;6.50;;;;;;;6.07;83.27;99306.64;104915;1257;60917;-60
2024/03/26 19:51:39;;;;;;;9.80;6.50;;;;;;;5.99;85.39;99312.61;105194;1251;60504;-60
2024/03/26 19:54:07;;;;;;;8.50;6.20;;;;;;;6.08;86.56;99316.70;104613;1251;74003;-59
2024/03/26 19:56:35;;;;;;;8.70;6.30;;;;;;;6.12;87.08;99316.92;104963;1258;69326;-60
2024/03/26 19:59:03;;;;;;;8.00;6.20;;;;;;;6.16;88.78;99322.72;104503;1270;73966;-60
2024/03/26 20:01:31;;;;;;;9.00;6.10;;;;;;;5.97;90.48;99327.08;104497;1257;61840;-61